sensor_id;sensor_type;location;lat;lon;timestamp;P1;durP1;ratioP1;P2;durP2;ratioP2
49584;SDS011;35491;49.142;9.210;2024-02-14T00:01:11;11.02;;;5.68;;
49584;SDS011;35491;49.142;9.210;2024-02-14T00:03:12;9.93;;;5.80;;
49584;SDS011;35491;49.142;9.210;2024-02-14T00:05:12;10.20;;;5.25;;
49584;SDS011;35491;49.142;9.210;2024-02-14T00:07:13;10.03;;;5.40;;
49584;SDS011;35491;49.142;9.210;2024-02-14T00:09:14;9.60;;;5.30;;
49584;SDS011;35491;49.142;9.210;2024-02-14T00:11:16;11.32;;;5.47;;
49584;SDS011;35491;49.142;9.210;2024-02-14T00:15:20;11.40;;;4.93;;
49584;SDS011;35491;49.142;9.210;2024-02-14T00:17:20;11.60;;;4.88;;
49584;SDS011;35491;49.142;9.210;2024-02-14T00:19:22;7.40;;;3.95;;
49584;SDS011;35491;49.142;9.210;2024-02-14T00:23:24;7.47;;;4.43;;
49584;SDS011;35491;49.142;9.210;2024-02-14T00:25:24;7.70;;;4.47;;
49584;SDS011;35491;49.142;9.210;2024-02-14T00:27:24;7.17;;;4.80;;
49584;SDS011;35491;49.142;9.210;2024-02-14T00:29:26;8.43;;;5.10;;
49584;SDS011;35491;49.142;9.210;2024-02-14T00:31:27;7.65;;;4.47;;
49584;SDS011;35491;49.142;9.210;2024-02-14T00:33:28;12.00;;;5.55;;
49584;SDS011;35491;49.142;9.210;2024-02-14T00:35:28;10.63;;;5.03;;
49584;SDS011;35491;49.142;9.210;2024-02-14T00:37:29;11.37;;;5.00;;
49584;SDS011;35491;49.142;9.210;2024-02-14T00:39:29;11.57;;;4.43;;
49584;SDS011;35491;49.142;9.210;2024-02-14T00:41:30;7.05;;;4.32;;
49584;SDS011;35491;49.142;9.210;2024-02-14T00:43:30;9.53;;;4.70;;
49584;SDS011;35491;49.142;9.210;2024-02-14T00:45:31;9.07;;;4.85;;
49584;SDS011;35491;49.142;9.210;2024-02-14T00:47:34;10.23;;;4.40;;
49584;SDS011;35491;49.142;9.210;2024-02-14T00:49:36;8.73;;;4.95;;
49584;SDS011;35491;49.142;9.210;2024-02-14T00:51:37;8.52;;;4.70;;
49584;SDS011;35491;49.142;9.210;2024-02-14T00:53:40;8.88;;;5.20;;
49584;SDS011;35491;49.142;9.210;2024-02-14T00:55:40;8.57;;;5.32;;
49584;SDS011;35491;49.142;9.210;2024-02-14T00:57:40;7.05;;;4.40;;
49584;SDS011;35491;49.142;9.210;2024-02-14T00:59:41;10.13;;;4.95;;
49584;SDS011;35491;49.142;9.210;2024-02-14T01:01:42;7.00;;;4.50;;
49584;SDS011;35491;49.142;9.210;2024-02-14T01:03:42;7.35;;;4.65;;
49584;SDS011;35491;49.142;9.210;2024-02-14T01:05:43;8.25;;;4.20;;
49584;SDS011;35491;49.142;9.210;2024-02-14T01:07:43;8.00;;;4.35;;
49584;SDS011;35491;49.142;9.210;2024-02-14T01:09:44;8.52;;;4.45;;
49584;SDS011;35491;49.142;9.210;2024-02-14T01:11:45;8.73;;;4.70;;
49584;SDS011;35491;49.142;9.210;2024-02-14T01:13:45;8.85;;;4.50;;
49584;SDS011;35491;49.142;9.210;2024-02-14T01:15:45;6.90;;;3.97;;
49584;SDS011;35491;49.142;9.210;2024-02-14T01:17:46;6.67;;;3.87;;
49584;SDS011;35491;49.142;9.210;2024-02-14T01:21:48;8.68;;;3.90;;
49584;SDS011;35491;49.142;9.210;2024-02-14T01:23:49;9.00;;;4.30;;
49584;SDS011;35491;49.142;9.210;2024-02-14T01:25:49;7.05;;;3.38;;
49584;SDS011;35491;49.142;9.210;2024-02-14T01:27:50;7.53;;;3.72;;
49584;SDS011;35491;49.142;9.210;2024-02-14T01:29:52;6.93;;;3.95;;
49584;SDS011;35491;49.142;9.210;2024-02-14T01:31:54;8.52;;;4.28;;
49584;SDS011;35491;49.142;9.210;2024-02-14T01:33:56;7.43;;;4.47;;
49584;SDS011;35491;49.142;9.210;2024-02-14T01:35:57;7.25;;;4.25;;
49584;SDS011;35491;49.142;9.210;2024-02-14T01:37:57;10.27;;;4.17;;
49584;SDS011;35491;49.142;9.210;2024-02-14T01:39:58;5.43;;;3.40;;
49584;SDS011;35491;49.142;9.210;2024-02-14T01:41:59;8.73;;;3.88;;
49584;SDS011;35491;49.142;9.210;2024-02-14T01:43:59;6.83;;;3.97;;
49584;SDS011;35491;49.142;9.210;2024-02-14T01:46:04;7.27;;;3.60;;
49584;SDS011;35491;49.142;9.210;2024-02-14T01:48:05;7.25;;;3.30;;
49584;SDS011;35491;49.142;9.210;2024-02-14T01:50:07;7.95;;;3.67;;
49584;SDS011;35491;49.142;9.210;2024-02-14T01:52:11;7.38;;;4.00;;
49584;SDS011;35491;49.142;9.210;2024-02-14T01:54:12;8.93;;;3.97;;
49584;SDS011;35491;49.142;9.210;2024-02-14T01:56:14;12.18;;;4.30;;
49584;SDS011;35491;49.142;9.210;2024-02-14T01:58:15;5.65;;;3.15;;
49584;SDS011;35491;49.142;9.210;2024-02-14T02:00:16;6.80;;;3.97;;
49584;SDS011;35491;49.142;9.210;2024-02-14T02:02:18;7.63;;;3.88;;
49584;SDS011;35491;49.142;9.210;2024-02-14T02:04:19;5.90;;;3.10;;
49584;SDS011;35491;49.142;9.210;2024-02-14T02:06:20;8.95;;;4.00;;
49584;SDS011;35491;49.142;9.210;2024-02-14T02:08:21;6.80;;;3.67;;
49584;SDS011;35491;49.142;9.210;2024-02-14T02:10:22;8.48;;;3.95;;
49584;SDS011;35491;49.142;9.210;2024-02-14T02:12:26;6.68;;;3.60;;
49584;SDS011;35491;49.142;9.210;2024-02-14T02:14:27;7.82;;;3.42;;
49584;SDS011;35491;49.142;9.210;2024-02-14T02:16:28;9.38;;;4.03;;
49584;SDS011;35491;49.142;9.210;2024-02-14T02:18:28;7.30;;;3.70;;
49584;SDS011;35491;49.142;9.210;2024-02-14T02:20:28;9.57;;;4.13;;
49584;SDS011;35491;49.142;9.210;2024-02-14T02:22:29;6.28;;;3.47;;
49584;SDS011;35491;49.142;9.210;2024-02-14T02:24:32;6.53;;;3.70;;
49584;SDS011;35491;49.142;9.210;2024-02-14T02:26:32;8.27;;;3.60;;
49584;SDS011;35491;49.142;9.210;2024-02-14T02:28:33;6.27;;;3.23;;
49584;SDS011;35491;49.142;9.210;2024-02-14T02:30:33;7.03;;;3.67;;
49584;SDS011;35491;49.142;9.210;2024-02-14T02:32:35;6.57;;;3.13;;
49584;SDS011;35491;49.142;9.210;2024-02-14T02:36:39;6.93;;;3.78;;
49584;SDS011;35491;49.142;9.210;2024-02-14T02:38:41;6.93;;;3.15;;
49584;SDS011;35491;49.142;9.210;2024-02-14T02:40:41;7.55;;;3.70;;
49584;SDS011;35491;49.142;9.210;2024-02-14T02:42:42;7.82;;;3.28;;
49584;SDS011;35491;49.142;9.210;2024-02-14T02:44:49;6.10;;;3.00;;
49584;SDS011;35491;49.142;9.210;2024-02-14T02:46:50;7.57;;;3.75;;
49584;SDS011;35491;49.142;9.210;2024-02-14T02:48:51;4.82;;;2.65;;
49584;SDS011;35491;49.142;9.210;2024-02-14T02:50:54;5.38;;;2.58;;
49584;SDS011;35491;49.142;9.210;2024-02-14T02:52:55;6.55;;;2.60;;
49584;SDS011;35491;49.142;9.210;2024-02-14T02:54:57;5.55;;;2.55;;
49584;SDS011;35491;49.142;9.210;2024-02-14T02:56:57;7.28;;;3.47;;
49584;SDS011;35491;49.142;9.210;2024-02-14T02:58:58;5.63;;;3.17;;
49584;SDS011;35491;49.142;9.210;2024-02-14T03:00:59;7.45;;;3.53;;
49584;SDS011;35491;49.142;9.210;2024-02-14T03:02:59;5.50;;;2.50;;
49584;SDS011;35491;49.142;9.210;2024-02-14T03:05:00;7.28;;;2.58;;
49584;SDS011;35491;49.142;9.210;2024-02-14T03:07:03;6.35;;;3.25;;
49584;SDS011;35491;49.142;9.210;2024-02-14T03:09:06;4.75;;;2.55;;
49584;SDS011;35491;49.142;9.210;2024-02-14T03:11:07;8.05;;;2.92;;
49584;SDS011;35491;49.142;9.210;2024-02-14T03:13:08;7.00;;;3.35;;
49584;SDS011;35491;49.142;9.210;2024-02-14T03:15:17;9.00;;;3.63;;
49584;SDS011;35491;49.142;9.210;2024-02-14T03:17:18;9.68;;;3.10;;
49584;SDS011;35491;49.142;9.210;2024-02-14T03:19:19;8.18;;;3.80;;
49584;SDS011;35491;49.142;9.210;2024-02-14T03:21:19;9.93;;;3.40;;
49584;SDS011;35491;49.142;9.210;2024-02-14T03:23:20;5.47;;;3.20;;
49584;SDS011;35491;49.142;9.210;2024-02-14T03:25:20;6.85;;;3.10;;
49584;SDS011;35491;49.142;9.210;2024-02-14T03:27:21;6.45;;;3.25;;
49584;SDS011;35491;49.142;9.210;2024-02-14T03:29:23;6.60;;;3.08;;
49584;SDS011;35491;49.142;9.210;2024-02-14T03:31:24;8.00;;;3.88;;
49584;SDS011;35491;49.142;9.210;2024-02-14T03:33:25;7.05;;;3.40;;
49584;SDS011;35491;49.142;9.210;2024-02-14T03:35:26;6.38;;;3.13;;
49584;SDS011;35491;49.142;9.210;2024-02-14T03:37:27;8.25;;;3.60;;
49584;SDS011;35491;49.142;9.210;2024-02-14T03:39:27;5.70;;;3.13;;
49584;SDS011;35491;49.142;9.210;2024-02-14T03:41:29;7.70;;;4.20;;
49584;SDS011;35491;49.142;9.210;2024-02-14T03:43:29;9.38;;;3.83;;
49584;SDS011;35491;49.142;9.210;2024-02-14T03:45:30;6.03;;;3.47;;
49584;SDS011;35491;49.142;9.210;2024-02-14T03:47:31;6.67;;;4.03;;
49584;SDS011;35491;49.142;9.210;2024-02-14T03:49:32;6.57;;;3.60;;
49584;SDS011;35491;49.142;9.210;2024-02-14T03:51:33;6.95;;;3.78;;
49584;SDS011;35491;49.142;9.210;2024-02-14T03:53:34;7.70;;;3.63;;
49584;SDS011;35491;49.142;9.210;2024-02-14T03:55:35;8.35;;;3.72;;
49584;SDS011;35491;49.142;9.210;2024-02-14T03:57:36;7.78;;;3.40;;
49584;SDS011;35491;49.142;9.210;2024-02-14T03:59:39;8.18;;;3.63;;
49584;SDS011;35491;49.142;9.210;2024-02-14T04:01:43;9.00;;;4.28;;
49584;SDS011;35491;49.142;9.210;2024-02-14T04:03:45;10.38;;;3.78;;
49584;SDS011;35491;49.142;9.210;2024-02-14T04:05:47;7.28;;;3.30;;
49584;SDS011;35491;49.142;9.210;2024-02-14T04:07:47;9.67;;;3.70;;
49584;SDS011;35491;49.142;9.210;2024-02-14T04:09:52;8.43;;;3.55;;
49584;SDS011;35491;49.142;9.210;2024-02-14T04:11:52;10.20;;;3.95;;
49584;SDS011;35491;49.142;9.210;2024-02-14T04:13:53;6.43;;;3.70;;
49584;SDS011;35491;49.142;9.210;2024-02-14T04:15:53;8.30;;;3.92;;
49584;SDS011;35491;49.142;9.210;2024-02-14T04:17:54;7.25;;;3.55;;
49584;SDS011;35491;49.142;9.210;2024-02-14T04:19:55;7.10;;;3.80;;
49584;SDS011;35491;49.142;9.210;2024-02-14T04:21:56;7.38;;;3.88;;
49584;SDS011;35491;49.142;9.210;2024-02-14T04:23:56;8.60;;;3.50;;
49584;SDS011;35491;49.142;9.210;2024-02-14T04:25:57;6.80;;;3.30;;
49584;SDS011;35491;49.142;9.210;2024-02-14T04:27:57;8.32;;;3.92;;
49584;SDS011;35491;49.142;9.210;2024-02-14T04:30:00;7.03;;;3.60;;
49584;SDS011;35491;49.142;9.210;2024-02-14T04:32:01;7.63;;;3.17;;
49584;SDS011;35491;49.142;9.210;2024-02-14T04:34:02;7.38;;;3.58;;
49584;SDS011;35491;49.142;9.210;2024-02-14T04:36:03;7.10;;;3.72;;
49584;SDS011;35491;49.142;9.210;2024-02-14T04:38:06;9.98;;;4.22;;
49584;SDS011;35491;49.142;9.210;2024-02-14T04:40:08;7.03;;;3.42;;
49584;SDS011;35491;49.142;9.210;2024-02-14T04:42:10;9.50;;;3.70;;
49584;SDS011;35491;49.142;9.210;2024-02-14T04:44:10;9.70;;;3.30;;
49584;SDS011;35491;49.142;9.210;2024-02-14T04:46:11;8.02;;;3.92;;
49584;SDS011;35491;49.142;9.210;2024-02-14T04:48:11;9.48;;;3.63;;
49584;SDS011;35491;49.142;9.210;2024-02-14T04:50:12;6.88;;;3.35;;
49584;SDS011;35491;49.142;9.210;2024-02-14T04:52:14;7.78;;;3.90;;
49584;SDS011;35491;49.142;9.210;2024-02-14T04:54:25;7.72;;;3.70;;
49584;SDS011;35491;49.142;9.210;2024-02-14T04:56:29;6.97;;;3.50;;
49584;SDS011;35491;49.142;9.210;2024-02-14T04:58:29;7.50;;;3.85;;
49584;SDS011;35491;49.142;9.210;2024-02-14T05:00:30;8.30;;;4.17;;
49584;SDS011;35491;49.142;9.210;2024-02-14T05:02:30;8.18;;;3.67;;
49584;SDS011;35491;49.142;9.210;2024-02-14T05:04:31;7.07;;;3.55;;
49584;SDS011;35491;49.142;9.210;2024-02-14T05:06:31;10.15;;;4.30;;
49584;SDS011;35491;49.142;9.210;2024-02-14T05:08:32;8.23;;;3.38;;
49584;SDS011;35491;49.142;9.210;2024-02-14T05:10:33;9.03;;;4.00;;
49584;SDS011;35491;49.142;9.210;2024-02-14T05:12:33;9.77;;;3.83;;
49584;SDS011;35491;49.142;9.210;2024-02-14T05:14:37;5.25;;;3.28;;
49584;SDS011;35491;49.142;9.210;2024-02-14T05:16:37;7.90;;;3.38;;
49584;SDS011;35491;49.142;9.210;2024-02-14T05:18:38;9.63;;;4.17;;
49584;SDS011;35491;49.142;9.210;2024-02-14T05:20:38;7.55;;;3.70;;
49584;SDS011;35491;49.142;9.210;2024-02-14T05:22:39;10.02;;;3.90;;
49584;SDS011;35491;49.142;9.210;2024-02-14T05:24:39;6.90;;;3.45;;
49584;SDS011;35491;49.142;9.210;2024-02-14T05:26:40;7.10;;;3.50;;
49584;SDS011;35491;49.142;9.210;2024-02-14T05:28:41;6.57;;;2.90;;
49584;SDS011;35491;49.142;9.210;2024-02-14T05:30:42;7.32;;;3.30;;
49584;SDS011;35491;49.142;9.210;2024-02-14T05:32:43;6.70;;;3.22;;
49584;SDS011;35491;49.142;9.210;2024-02-14T05:34:43;6.87;;;3.23;;
49584;SDS011;35491;49.142;9.210;2024-02-14T05:36:44;6.22;;;3.03;;
49584;SDS011;35491;49.142;9.210;2024-02-14T05:38:46;8.15;;;4.22;;
49584;SDS011;35491;49.142;9.210;2024-02-14T05:40:47;7.45;;;3.10;;
49584;SDS011;35491;49.142;9.210;2024-02-14T05:42:48;8.70;;;3.60;;
49584;SDS011;35491;49.142;9.210;2024-02-14T05:44:49;7.65;;;3.60;;
49584;SDS011;35491;49.142;9.210;2024-02-14T05:46:52;9.90;;;3.35;;
49584;SDS011;35491;49.142;9.210;2024-02-14T05:48:52;7.80;;;3.17;;
49584;SDS011;35491;49.142;9.210;2024-02-14T05:50:52;8.10;;;3.07;;
49584;SDS011;35491;49.142;9.210;2024-02-14T05:52:53;7.82;;;2.53;;
49584;SDS011;35491;49.142;9.210;2024-02-14T05:54:53;6.43;;;2.63;;
49584;SDS011;35491;49.142;9.210;2024-02-14T05:56:54;7.75;;;3.13;;
49584;SDS011;35491;49.142;9.210;2024-02-14T05:58:54;6.30;;;2.50;;
49584;SDS011;35491;49.142;9.210;2024-02-14T06:00:54;8.77;;;2.60;;
49584;SDS011;35491;49.142;9.210;2024-02-14T06:02:58;10.93;;;2.90;;
49584;SDS011;35491;49.142;9.210;2024-02-14T06:04:58;5.85;;;2.33;;
49584;SDS011;35491;49.142;9.210;2024-02-14T06:06:58;5.83;;;2.70;;
49584;SDS011;35491;49.142;9.210;2024-02-14T06:08:59;6.40;;;2.47;;
49584;SDS011;35491;49.142;9.210;2024-02-14T06:10:59;10.75;;;3.20;;
49584;SDS011;35491;49.142;9.210;2024-02-14T06:13:00;7.20;;;2.73;;
49584;SDS011;35491;49.142;9.210;2024-02-14T06:15:01;6.50;;;2.42;;
49584;SDS011;35491;49.142;9.210;2024-02-14T06:19:03;6.23;;;2.37;;
49584;SDS011;35491;49.142;9.210;2024-02-14T06:21:04;5.65;;;2.33;;
49584;SDS011;35491;49.142;9.210;2024-02-14T06:23:05;10.48;;;2.80;;
49584;SDS011;35491;49.142;9.210;2024-02-14T06:25:07;6.47;;;2.25;;
49584;SDS011;35491;49.142;9.210;2024-02-14T06:27:08;11.20;;;2.88;;
49584;SDS011;35491;49.142;9.210;2024-02-14T06:29:08;6.68;;;2.22;;
49584;SDS011;35491;49.142;9.210;2024-02-14T06:31:08;5.97;;;2.30;;
49584;SDS011;35491;49.142;9.210;2024-02-14T06:33:09;6.20;;;2.40;;
49584;SDS011;35491;49.142;9.210;2024-02-14T06:35:10;8.23;;;2.53;;
49584;SDS011;35491;49.142;9.210;2024-02-14T06:37:10;5.95;;;2.80;;
49584;SDS011;35491;49.142;9.210;2024-02-14T06:39:11;4.30;;;2.15;;
49584;SDS011;35491;49.142;9.210;2024-02-14T06:41:12;8.68;;;3.08;;
49584;SDS011;35491;49.142;9.210;2024-02-14T06:43:13;6.65;;;2.42;;
49584;SDS011;35491;49.142;9.210;2024-02-14T06:45:13;7.47;;;3.05;;
49584;SDS011;35491;49.142;9.210;2024-02-14T06:47:14;9.40;;;2.72;;
49584;SDS011;35491;49.142;9.210;2024-02-14T06:49:15;6.90;;;2.58;;
49584;SDS011;35491;49.142;9.210;2024-02-14T06:51:16;6.15;;;2.55;;
49584;SDS011;35491;49.142;9.210;2024-02-14T06:53:17;6.40;;;2.55;;
49584;SDS011;35491;49.142;9.210;2024-02-14T06:55:17;6.20;;;3.08;;
49584;SDS011;35491;49.142;9.210;2024-02-14T06:57:18;5.65;;;2.75;;
49584;SDS011;35491;49.142;9.210;2024-02-14T06:59:18;6.32;;;3.50;;
49584;SDS011;35491;49.142;9.210;2024-02-14T07:01:19;7.80;;;3.30;;
49584;SDS011;35491;49.142;9.210;2024-02-14T07:03:23;6.97;;;2.90;;
49584;SDS011;35491;49.142;9.210;2024-02-14T07:05:23;9.15;;;3.28;;
49584;SDS011;35491;49.142;9.210;2024-02-14T07:07:23;4.95;;;2.20;;
49584;SDS011;35491;49.142;9.210;2024-02-14T07:09:24;8.73;;;2.83;;
49584;SDS011;35491;49.142;9.210;2024-02-14T07:13:25;12.53;;;4.00;;
49584;SDS011;35491;49.142;9.210;2024-02-14T07:15:26;5.40;;;2.93;;
49584;SDS011;35491;49.142;9.210;2024-02-14T07:17:28;11.23;;;2.70;;
49584;SDS011;35491;49.142;9.210;2024-02-14T07:19:28;7.45;;;2.80;;
49584;SDS011;35491;49.142;9.210;2024-02-14T07:21:29;6.13;;;2.60;;
49584;SDS011;35491;49.142;9.210;2024-02-14T07:23:30;7.78;;;2.80;;
49584;SDS011;35491;49.142;9.210;2024-02-14T07:25:30;8.73;;;3.47;;
49584;SDS011;35491;49.142;9.210;2024-02-14T07:27:31;8.88;;;3.10;;
49584;SDS011;35491;49.142;9.210;2024-02-14T07:29:31;5.60;;;2.63;;
49584;SDS011;35491;49.142;9.210;2024-02-14T07:31:32;5.85;;;2.67;;
49584;SDS011;35491;49.142;9.210;2024-02-14T07:33:34;7.18;;;2.88;;
49584;SDS011;35491;49.142;9.210;2024-02-14T07:35:36;7.82;;;2.75;;
49584;SDS011;35491;49.142;9.210;2024-02-14T07:37:37;7.70;;;2.63;;
49584;SDS011;35491;49.142;9.210;2024-02-14T07:39:37;8.32;;;3.10;;
49584;SDS011;35491;49.142;9.210;2024-02-14T07:41:38;6.03;;;2.65;;
49584;SDS011;35491;49.142;9.210;2024-02-14T07:43:39;11.32;;;2.95;;
49584;SDS011;35491;49.142;9.210;2024-02-14T07:45:39;6.75;;;2.72;;
49584;SDS011;35491;49.142;9.210;2024-02-14T07:47:40;6.05;;;3.33;;
49584;SDS011;35491;49.142;9.210;2024-02-14T07:49:40;5.40;;;2.88;;
49584;SDS011;35491;49.142;9.210;2024-02-14T07:51:41;10.73;;;3.55;;
49584;SDS011;35491;49.142;9.210;2024-02-14T07:53:41;12.17;;;6.63;;
49584;SDS011;35491;49.142;9.210;2024-02-14T07:55:42;11.25;;;5.78;;
49584;SDS011;35491;49.142;9.210;2024-02-14T07:57:43;9.25;;;4.53;;
49584;SDS011;35491;49.142;9.210;2024-02-14T07:59:44;8.85;;;4.40;;
49584;SDS011;35491;49.142;9.210;2024-02-14T08:01:45;8.70;;;3.45;;
49584;SDS011;35491;49.142;9.210;2024-02-14T08:03:46;8.90;;;3.50;;
49584;SDS011;35491;49.142;9.210;2024-02-14T08:05:46;11.07;;;4.07;;
49584;SDS011;35491;49.142;9.210;2024-02-14T08:07:47;9.32;;;3.30;;
49584;SDS011;35491;49.142;9.210;2024-02-14T08:09:47;12.13;;;3.78;;
49584;SDS011;35491;49.142;9.210;2024-02-14T08:11:48;8.73;;;4.22;;
49584;SDS011;35491;49.142;9.210;2024-02-14T08:13:52;8.43;;;3.88;;
49584;SDS011;35491;49.142;9.210;2024-02-14T08:15:52;11.85;;;3.97;;
49584;SDS011;35491;49.142;9.210;2024-02-14T08:17:53;8.82;;;3.25;;
49584;SDS011;35491;49.142;9.210;2024-02-14T08:19:56;11.60;;;3.40;;
49584;SDS011;35491;49.142;9.210;2024-02-14T08:21:57;11.35;;;3.63;;
49584;SDS011;35491;49.142;9.210;2024-02-14T08:24:00;11.32;;;3.45;;
49584;SDS011;35491;49.142;9.210;2024-02-14T08:26:00;7.25;;;3.03;;
49584;SDS011;35491;49.142;9.210;2024-02-14T08:28:01;7.72;;;3.25;;
49584;SDS011;35491;49.142;9.210;2024-02-14T08:30:02;8.60;;;3.08;;
49584;SDS011;35491;49.142;9.210;2024-02-14T08:32:06;11.18;;;3.05;;
49584;SDS011;35491;49.142;9.210;2024-02-14T08:34:06;6.03;;;2.87;;
49584;SDS011;35491;49.142;9.210;2024-02-14T08:36:08;5.95;;;3.00;;
49584;SDS011;35491;49.142;9.210;2024-02-14T08:38:09;6.50;;;2.65;;
49584;SDS011;35491;49.142;9.210;2024-02-14T08:40:10;5.10;;;2.35;;
49584;SDS011;35491;49.142;9.210;2024-02-14T08:42:12;6.35;;;2.90;;
49584;SDS011;35491;49.142;9.210;2024-02-14T08:44:13;6.88;;;3.50;;
49584;SDS011;35491;49.142;9.210;2024-02-14T08:46:13;8.32;;;2.80;;
49584;SDS011;35491;49.142;9.210;2024-02-14T08:48:14;6.97;;;2.75;;
49584;SDS011;35491;49.142;9.210;2024-02-14T08:50:15;6.03;;;2.67;;
49584;SDS011;35491;49.142;9.210;2024-02-14T08:52:15;9.18;;;2.83;;
49584;SDS011;35491;49.142;9.210;2024-02-14T08:54:16;6.72;;;2.67;;
49584;SDS011;35491;49.142;9.210;2024-02-14T08:56:17;6.85;;;2.17;;
49584;SDS011;35491;49.142;9.210;2024-02-14T08:58:17;5.43;;;2.55;;
49584;SDS011;35491;49.142;9.210;2024-02-14T09:00:19;5.93;;;2.40;;
49584;SDS011;35491;49.142;9.210;2024-02-14T09:02:19;6.40;;;2.90;;
49584;SDS011;35491;49.142;9.210;2024-02-14T09:04:20;6.38;;;3.00;;
49584;SDS011;35491;49.142;9.210;2024-02-14T09:06:21;7.22;;;3.25;;
49584;SDS011;35491;49.142;9.210;2024-02-14T09:08:21;6.38;;;2.85;;
49584;SDS011;35491;49.142;9.210;2024-02-14T09:10:22;7.63;;;3.30;;
49584;SDS011;35491;49.142;9.210;2024-02-14T09:12:23;7.47;;;2.42;;
49584;SDS011;35491;49.142;9.210;2024-02-14T09:14:23;6.43;;;2.33;;
49584;SDS011;35491;49.142;9.210;2024-02-14T09:16:23;7.10;;;2.97;;
49584;SDS011;35491;49.142;9.210;2024-02-14T09:18:24;6.00;;;2.40;;
49584;SDS011;35491;49.142;9.210;2024-02-14T09:22:26;5.67;;;2.13;;
49584;SDS011;35491;49.142;9.210;2024-02-14T09:24:26;5.70;;;2.78;;
49584;SDS011;35491;49.142;9.210;2024-02-14T09:26:26;6.45;;;2.40;;
49584;SDS011;35491;49.142;9.210;2024-02-14T09:28:27;5.65;;;2.67;;
49584;SDS011;35491;49.142;9.210;2024-02-14T09:30:27;6.35;;;2.63;;
49584;SDS011;35491;49.142;9.210;2024-02-14T09:32:28;6.10;;;2.40;;
49584;SDS011;35491;49.142;9.210;2024-02-14T09:34:28;6.07;;;3.10;;
49584;SDS011;35491;49.142;9.210;2024-02-14T09:36:29;8.02;;;4.97;;
49584;SDS011;35491;49.142;9.210;2024-02-14T09:38:30;8.27;;;4.53;;
49584;SDS011;35491;49.142;9.210;2024-02-14T09:40:31;7.72;;;4.35;;
49584;SDS011;35491;49.142;9.210;2024-02-14T09:42:44;6.95;;;3.30;;
49584;SDS011;35491;49.142;9.210;2024-02-14T09:44:49;7.00;;;3.22;;
49584;SDS011;35491;49.142;9.210;2024-02-14T09:46:52;6.65;;;3.08;;
49584;SDS011;35491;49.142;9.210;2024-02-14T09:48:53;8.80;;;2.42;;
49584;SDS011;35491;49.142;9.210;2024-02-14T09:50:54;4.97;;;1.95;;
49584;SDS011;35491;49.142;9.210;2024-02-14T09:52:57;5.07;;;2.17;;
49584;SDS011;35491;49.142;9.210;2024-02-14T09:54:58;4.70;;;2.20;;
49584;SDS011;35491;49.142;9.210;2024-02-14T09:56:59;6.82;;;2.47;;
49584;SDS011;35491;49.142;9.210;2024-02-14T09:59:00;4.45;;;2.10;;
49584;SDS011;35491;49.142;9.210;2024-02-14T10:01:02;7.75;;;2.45;;
49584;SDS011;35491;49.142;9.210;2024-02-14T10:05:04;7.03;;;2.43;;
49584;SDS011;35491;49.142;9.210;2024-02-14T10:07:05;5.07;;;2.08;;
49584;SDS011;35491;49.142;9.210;2024-02-14T10:09:05;5.43;;;1.98;;
49584;SDS011;35491;49.142;9.210;2024-02-14T10:11:05;5.57;;;2.00;;
49584;SDS011;35491;49.142;9.210;2024-02-14T10:13:06;5.78;;;2.10;;
49584;SDS011;35491;49.142;9.210;2024-02-14T10:15:07;5.22;;;1.95;;
49584;SDS011;35491;49.142;9.210;2024-02-14T10:19:16;5.22;;;2.53;;
49584;SDS011;35491;49.142;9.210;2024-02-14T10:21:17;5.55;;;2.15;;
49584;SDS011;35491;49.142;9.210;2024-02-14T10:23:19;7.07;;;2.50;;
49584;SDS011;35491;49.142;9.210;2024-02-14T10:25:20;9.20;;;2.97;;
49584;SDS011;35491;49.142;9.210;2024-02-14T10:27:21;6.97;;;2.33;;
49584;SDS011;35491;49.142;9.210;2024-02-14T10:29:22;5.97;;;2.47;;
49584;SDS011;35491;49.142;9.210;2024-02-14T10:31:24;5.85;;;2.50;;
49584;SDS011;35491;49.142;9.210;2024-02-14T10:33:27;6.88;;;3.05;;
49584;SDS011;35491;49.142;9.210;2024-02-14T10:35:32;5.32;;;2.30;;
49584;SDS011;35491;49.142;9.210;2024-02-14T10:37:37;6.53;;;2.70;;
49584;SDS011;35491;49.142;9.210;2024-02-14T10:41:41;6.85;;;2.80;;
49584;SDS011;35491;49.142;9.210;2024-02-14T10:43:42;7.00;;;2.50;;
49584;SDS011;35491;49.142;9.210;2024-02-14T10:45:46;6.47;;;2.47;;
49584;SDS011;35491;49.142;9.210;2024-02-14T10:47:46;4.50;;;2.08;;
49584;SDS011;35491;49.142;9.210;2024-02-14T10:49:49;7.57;;;2.25;;
49584;SDS011;35491;49.142;9.210;2024-02-14T10:51:51;5.90;;;2.20;;
49584;SDS011;35491;49.142;9.210;2024-02-14T10:53:54;5.38;;;2.30;;
49584;SDS011;35491;49.142;9.210;2024-02-14T10:55:56;5.53;;;2.17;;
49584;SDS011;35491;49.142;9.210;2024-02-14T10:57:58;5.43;;;2.00;;
49584;SDS011;35491;49.142;9.210;2024-02-14T11:00:06;5.25;;;2.00;;
49584;SDS011;35491;49.142;9.210;2024-02-14T11:02:09;7.45;;;2.42;;
49584;SDS011;35491;49.142;9.210;2024-02-14T11:06:15;8.10;;;2.30;;
49584;SDS011;35491;49.142;9.210;2024-02-14T11:08:19;4.63;;;1.70;;
49584;SDS011;35491;49.142;9.210;2024-02-14T11:10:24;5.72;;;2.25;;
49584;SDS011;35491;49.142;9.210;2024-02-14T11:12:31;5.28;;;2.30;;
49584;SDS011;35491;49.142;9.210;2024-02-14T11:14:34;4.28;;;2.00;;
49584;SDS011;35491;49.142;9.210;2024-02-14T11:16:41;6.18;;;2.10;;
49584;SDS011;35491;49.142;9.210;2024-02-14T11:18:45;6.22;;;2.50;;
49584;SDS011;35491;49.142;9.210;2024-02-14T11:20:45;6.43;;;1.95;;
49584;SDS011;35491;49.142;9.210;2024-02-14T11:23:04;6.40;;;2.08;;
49584;SDS011;35491;49.142;9.210;2024-02-14T11:25:14;4.70;;;2.00;;
49584;SDS011;35491;49.142;9.210;2024-02-14T11:27:17;5.95;;;2.05;;
49584;SDS011;35491;49.142;9.210;2024-02-14T11:29:20;5.95;;;1.90;;
49584;SDS011;35491;49.142;9.210;2024-02-14T11:31:35;8.00;;;2.03;;
49584;SDS011;35491;49.142;9.210;2024-02-14T11:33:37;5.70;;;2.00;;
49584;SDS011;35491;49.142;9.210;2024-02-14T11:35:41;4.60;;;1.95;;
49584;SDS011;35491;49.142;9.210;2024-02-14T11:37:42;6.05;;;2.42;;
49584;SDS011;35491;49.142;9.210;2024-02-14T11:39:42;4.93;;;2.03;;
49584;SDS011;35491;49.142;9.210;2024-02-14T11:41:43;5.05;;;2.05;;
49584;SDS011;35491;49.142;9.210;2024-02-14T11:43:50;5.93;;;2.38;;
49584;SDS011;35491;49.142;9.210;2024-02-14T11:45:51;5.32;;;2.00;;
49584;SDS011;35491;49.142;9.210;2024-02-14T11:47:54;8.35;;;4.05;;
49584;SDS011;35491;49.142;9.210;2024-02-14T11:49:55;6.53;;;2.95;;
49584;SDS011;35491;49.142;9.210;2024-02-14T11:51:58;5.93;;;2.28;;
49584;SDS011;35491;49.142;9.210;2024-02-14T11:53:59;6.72;;;2.47;;
49584;SDS011;35491;49.142;9.210;2024-02-14T11:56:07;5.85;;;2.40;;
49584;SDS011;35491;49.142;9.210;2024-02-14T12:00:10;5.47;;;2.10;;
49584;SDS011;35491;49.142;9.210;2024-02-14T12:02:12;6.30;;;2.00;;
49584;SDS011;35491;49.142;9.210;2024-02-14T12:04:14;6.40;;;2.38;;
49584;SDS011;35491;49.142;9.210;2024-02-14T12:06:15;4.28;;;1.80;;
49584;SDS011;35491;49.142;9.210;2024-02-14T12:08:16;8.88;;;1.67;;
49584;SDS011;35491;49.142;9.210;2024-02-14T12:10:18;3.65;;;1.40;;
49584;SDS011;35491;49.142;9.210;2024-02-14T12:12:21;4.70;;;1.42;;
49584;SDS011;35491;49.142;9.210;2024-02-14T12:14:23;3.95;;;1.50;;
49584;SDS011;35491;49.142;9.210;2024-02-14T12:16:28;4.78;;;1.60;;
49584;SDS011;35491;49.142;9.210;2024-02-14T12:18:28;5.10;;;1.50;;
49584;SDS011;35491;49.142;9.210;2024-02-14T12:20:29;4.00;;;1.13;;
49584;SDS011;35491;49.142;9.210;2024-02-14T12:22:29;4.70;;;1.58;;
49584;SDS011;35491;49.142;9.210;2024-02-14T12:24:30;4.05;;;1.55;;
49584;SDS011;35491;49.142;9.210;2024-02-14T12:26:30;3.08;;;1.13;;
49584;SDS011;35491;49.142;9.210;2024-02-14T12:28:32;3.35;;;1.08;;
49584;SDS011;35491;49.142;9.210;2024-02-14T12:33:02;3.92;;;1.30;;
49584;SDS011;35491;49.142;9.210;2024-02-14T12:35:09;4.55;;;1.45;;
49584;SDS011;35491;49.142;9.210;2024-02-14T12:37:10;5.80;;;1.63;;